createdAt,value
2022-12-14T00:02:20.757Z,54.49
2022-12-14T00:07:24.224Z,55.25
2022-12-14T00:12:29.000Z,54.23
2022-12-14T00:17:32.557Z,56.11
2022-12-14T00:22:38.330Z,55.41
2022-12-14T00:27:47.406Z,57.03
2022-12-14T00:32:50.852Z,62.57
2022-12-14T00:37:54.269Z,55.86
2022-12-14T00:43:00.633Z,54.58
2022-12-14T00:48:04.049Z,55.75
2022-12-14T00:53:07.785Z,53.45
2022-12-14T00:58:14.173Z,53.09
2022-12-14T01:03:19.851Z,53.75
2022-12-14T01:08:26.095Z,52.65
2022-12-14T01:13:30.914Z,53.66
2022-12-14T01:18:37.937Z,53.58
2022-12-14T01:23:41.889Z,53.57
2022-12-14T01:28:47.527Z,52.61
2022-12-14T01:33:51.300Z,52.86
2022-12-14T01:38:57.953Z,52.70
2022-12-14T01:44:04.179Z,51.42
2022-12-14T01:49:15.615Z,51.21
2022-12-14T01:54:22.288Z,50.84
2022-12-14T01:59:31.577Z,51.72
2022-12-14T02:04:39.936Z,57.16
2022-12-14T02:09:46.074Z,58.07
2022-12-14T02:14:54.425Z,58.25
2022-12-14T02:20:03.852Z,57.24
2022-12-14T02:25:19.690Z,56.76
2022-12-14T02:30:28.055Z,56.11
2022-12-14T02:35:39.546Z,59.92
2022-12-14T02:40:48.534Z,58.68
2022-12-14T02:46:01.452Z,60.54
2022-12-14T02:51:16.002Z,58.52
2022-12-14T02:56:24.394Z,57.77
2022-12-14T03:01:31.436Z,57.81
2022-12-14T03:06:37.219Z,55.92
2022-12-14T03:11:49.067Z,57.01
2022-12-14T03:17:05.338Z,59.27
2022-12-14T03:22:17.287Z,58.08
2022-12-14T03:27:25.184Z,57.84
2022-12-14T03:32:33.242Z,57.30
2022-12-14T03:37:40.885Z,58.97
2022-12-14T03:42:55.957Z,58.33
2022-12-14T03:48:09.448Z,59.03
2022-12-14T03:53:23.545Z,58.58
2022-12-14T03:58:37.994Z,59.84
2022-12-14T04:03:52.118Z,61.20
2022-12-14T04:09:06.306Z,62.10
2022-12-14T04:14:31.927Z,61.44
2022-12-14T04:19:41.780Z,61.72
2022-12-14T04:25:07.434Z,61.17
2022-12-14T04:30:12.301Z,63.61
2022-12-14T04:35:23.051Z,63.34
2022-12-14T04:40:30.184Z,61.91
2022-12-14T04:45:43.228Z,63.02
2022-12-14T04:50:53.662Z,62.45
2022-12-14T04:56:05.084Z,62.57
2022-12-14T05:01:24.032Z,63.28
2022-12-14T05:06:39.066Z,63.13
2022-12-14T05:11:53.766Z,63.15
2022-12-14T05:17:01.365Z,63.57
2022-12-14T05:22:09.820Z,65.60
2022-12-14T05:27:16.293Z,69.36
2022-12-14T05:32:19.701Z,64.90
2022-12-14T05:37:24.468Z,60.62
2022-12-14T05:42:31.382Z,56.72
2022-12-14T05:47:34.815Z,56.80
2022-12-14T05:52:40.020Z,54.96
2022-12-14T05:57:43.442Z,53.77
2022-12-14T06:02:49.101Z,53.66
2022-12-14T06:07:58.503Z,53.50
2022-12-14T06:13:02.022Z,55.81
2022-12-14T06:18:05.616Z,55.00
2022-12-14T06:23:10.410Z,61.20
2022-12-14T06:28:16.186Z,56.90
2022-12-14T06:33:19.633Z,58.75
2022-12-14T06:38:26.671Z,59.09
2022-12-14T06:43:32.505Z,59.28
2022-12-14T06:48:35.931Z,60.51
2022-12-14T06:53:40.763Z,60.75
2022-12-14T06:58:44.897Z,63.68
2022-12-14T07:03:49.448Z,64.42
2022-12-14T07:08:58.148Z,64.46
2022-12-14T07:14:06.013Z,62.90
2022-12-14T07:19:10.795Z,61.74
2022-12-14T07:24:15.811Z,63.94
2022-12-14T07:29:26.503Z,62.60
2022-12-14T07:34:33.510Z,63.18
2022-12-14T07:39:40.961Z,61.86
2022-12-14T07:44:47.185Z,60.81
2022-12-14T07:49:53.172Z,60.96
2022-12-14T07:54:58.040Z,62.27
2022-12-14T08:00:01.444Z,62.18
2022-12-14T08:05:14.856Z,62.53
2022-12-14T08:10:19.770Z,62.79
2022-12-14T08:15:23.158Z,62.88
2022-12-14T08:20:26.629Z,63.34
2022-12-14T08:25:31.414Z,63.29
2022-12-14T08:30:34.849Z,61.94
2022-12-14T08:35:38.437Z,62.68
2022-12-14T08:40:43.371Z,63.97
2022-12-14T08:45:46.739Z,62.22
2022-12-14T08:50:52.974Z,60.85
2022-12-14T08:56:00.618Z,59.44
2022-12-14T09:01:08.221Z,60.73
2022-12-14T09:06:18.241Z,60.13
2022-12-14T09:11:23.366Z,62.45
2022-12-14T09:16:27.395Z,62.06
2022-12-14T09:21:31.817Z,62.19
2022-12-14T09:26:36.589Z,61.16
2022-12-14T09:31:42.389Z,61.86
2022-12-14T09:36:46.009Z,60.76
2022-12-14T09:42:03.559Z,59.24
2022-12-14T09:47:15.280Z,58.97
2022-12-14T09:52:25.634Z,57.93
2022-12-14T09:57:36.172Z,59.56
2022-12-14T10:02:50.677Z,60.45
2022-12-14T10:08:04.762Z,57.55
2022-12-14T10:13:20.925Z,59.48
2022-12-14T10:18:59.662Z,58.92
2022-12-14T10:24:12.382Z,59.87
2022-12-14T10:29:23.093Z,58.33
2022-12-14T10:34:30.188Z,59.79
2022-12-14T10:39:42.982Z,60.73
2022-12-14T10:45:39.623Z,59.94
2022-12-14T10:50:35.686Z,60.03
2022-12-14T10:55:42.345Z,61.19
2022-12-14T11:00:47.089Z,59.60
2022-12-14T11:05:58.000Z,59.58
2022-12-14T11:11:13.976Z,58.46
2022-12-14T11:16:33.735Z,57.58
2022-12-14T11:21:39.666Z,55.96
2022-12-14T11:26:44.970Z,54.58
2022-12-14T11:31:55.190Z,53.14
2022-12-14T11:37:11.746Z,56.12
2022-12-14T11:42:19.032Z,54.67
2022-12-14T11:47:25.734Z,54.50
2022-12-14T11:52:41.710Z,55.11
2022-12-14T11:57:50.712Z,52.50
2022-12-14T12:03:01.045Z,49.95
2022-12-14T12:08:20.119Z,49.13
2022-12-14T12:13:29.530Z,46.03
2022-12-14T12:18:44.489Z,45.95
2022-12-14T12:23:54.536Z,45.20
2022-12-14T12:29:04.477Z,43.16
2022-12-14T12:34:16.730Z,44.42
2022-12-14T12:39:25.041Z,44.23
2022-12-14T12:44:40.696Z,47.65
2022-12-14T12:49:47.630Z,43.64
2022-12-14T12:54:56.908Z,44.69
2022-12-14T13:00:05.865Z,43.09
2022-12-14T13:05:45.042Z,43.59
2022-12-14T13:10:50.656Z,44.51
2022-12-14T13:16:13.348Z,43.13
2022-12-14T13:21:30.288Z,42.34
2022-12-14T13:26:57.720Z,41.14
2022-12-14T13:32:07.687Z,40.42
2022-12-14T13:37:25.186Z,50.91
2022-12-14T13:42:40.320Z,42.30
2022-12-14T13:47:51.548Z,42.88
2022-12-14T13:53:01.940Z,43.00
2022-12-14T13:58:18.321Z,43.02
2022-12-14T14:03:41.539Z,41.89
2022-12-14T14:08:49.153Z,44.69
2022-12-14T14:14:05.824Z,43.90
2022-12-14T14:19:20.380Z,47.11
2022-12-14T14:24:30.843Z,48.59
2022-12-14T14:29:35.680Z,50.97
2022-12-14T14:34:46.803Z,51.29
2022-12-14T14:40:13.446Z,53.25
2022-12-14T14:45:31.325Z,55.85
2022-12-14T14:50:39.257Z,57.16
2022-12-14T14:56:01.021Z,57.78
2022-12-14T15:01:20.347Z,60.51
2022-12-14T15:06:30.797Z,61.45
2022-12-14T15:11:37.815Z,64.09
2022-12-14T15:16:45.064Z,64.07
2022-12-14T15:21:49.724Z,65.09
2022-12-14T15:26:54.032Z,66.08
2022-12-14T15:32:01.962Z,65.05
2022-12-14T15:37:05.589Z,66.28
2022-12-14T15:42:13.944Z,65.57
2022-12-14T15:47:25.335Z,66.14
2022-12-14T15:52:31.918Z,65.72
2022-12-14T15:57:35.381Z,67.73
2022-12-14T16:02:44.232Z,67.85
2022-12-14T16:07:51.719Z,68.61
2022-12-14T16:13:01.077Z,67.71
2022-12-14T16:18:06.235Z,68.37
2022-12-14T16:23:24.131Z,69.17
2022-12-14T16:28:29.258Z,68.60
2022-12-14T16:33:37.557Z,68.60
2022-12-14T16:38:54.632Z,66.77
2022-12-14T16:44:01.768Z,65.28
2022-12-14T16:49:22.784Z,64.42
2022-12-14T16:54:28.161Z,63.19
2022-12-14T16:59:39.704Z,63.36
2022-12-14T17:04:47.799Z,63.75
2022-12-14T17:09:51.175Z,62.37
2022-12-14T17:14:55.091Z,62.19
2022-12-14T17:20:00.312Z,64.15
2022-12-14T17:25:04.024Z,63.32
2022-12-14T17:30:08.566Z,68.51
2022-12-14T17:35:17.531Z,72.07
2022-12-14T17:40:20.974Z,62.60
2022-12-14T17:45:25.964Z,63.58
2022-12-14T17:50:31.100Z,70.73
2022-12-14T17:55:34.925Z,61.42
2022-12-14T18:00:57.018Z,62.05
2022-12-14T18:06:05.144Z,62.12
2022-12-14T18:11:13.537Z,59.92
2022-12-14T18:16:21.067Z,57.87
2022-12-14T18:21:27.898Z,55.29
2022-12-14T18:26:33.966Z,55.20
2022-12-14T18:31:39.118Z,55.83
2022-12-14T18:36:44.311Z,55.75
2022-12-14T18:41:50.046Z,55.25
2022-12-14T18:46:53.486Z,56.62
2022-12-14T18:51:58.395Z,59.73
2022-12-14T18:57:01.827Z,59.32
2022-12-14T19:02:07.638Z,57.96
2022-12-14T19:07:12.542Z,57.69
2022-12-14T19:12:18.395Z,56.66
2022-12-14T19:17:24.236Z,57.32
2022-12-14T19:22:29.821Z,59.79
2022-12-14T19:28:11.400Z,60.27
2022-12-14T19:32:59.749Z,58.24
2022-12-14T19:38:06.918Z,57.40
2022-12-14T19:43:12.832Z,56.77
2022-12-14T19:48:16.253Z,58.38
2022-12-14T19:53:24.163Z,55.59
2022-12-14T19:58:28.576Z,60.24
2022-12-14T20:03:34.555Z,57.59
2022-12-14T20:08:39.880Z,57.17
2022-12-14T20:13:43.294Z,57.91
2022-12-14T20:18:47.316Z,57.25
2022-12-14T20:23:52.246Z,58.86
2022-12-14T20:28:57.122Z,56.67
2022-12-14T20:34:02.184Z,56.17
2022-12-14T20:39:12.006Z,54.99
2022-12-14T20:44:16.306Z,55.13
2022-12-14T20:49:23.304Z,55.08
2022-12-14T20:54:29.440Z,53.14
2022-12-14T20:59:32.846Z,55.72
2022-12-14T21:04:43.865Z,53.97
2022-12-14T21:09:48.559Z,56.99
2022-12-14T21:14:55.696Z,54.98
2022-12-14T21:20:01.752Z,55.20
2022-12-14T21:25:08.833Z,52.81
2022-12-14T21:30:12.956Z,53.68
2022-12-14T21:35:19.481Z,51.10
2022-12-14T21:40:47.387Z,48.65
2022-12-14T21:45:52.119Z,48.16
2022-12-14T21:50:57.787Z,49.29
2022-12-14T21:56:23.025Z,49.88
2022-12-14T22:01:26.496Z,48.21
2022-12-14T22:06:29.986Z,48.86
2022-12-14T22:11:35.106Z,48.59
2022-12-14T22:16:44.032Z,48.90
2022-12-14T22:21:49.626Z,48.64
2022-12-14T22:26:54.515Z,48.73
2022-12-14T22:31:58.011Z,47.73
2022-12-14T22:37:01.819Z,47.37
2022-12-14T22:42:06.810Z,47.74
2022-12-14T22:47:10.199Z,47.83
2022-12-14T22:52:13.529Z,47.91
2022-12-14T22:57:23.499Z,47.36
2022-12-14T23:02:27.148Z,47.14
2022-12-14T23:07:33.638Z,44.61
2022-12-14T23:12:58.343Z,45.74
2022-12-14T23:18:19.683Z,44.81
2022-12-14T23:23:40.306Z,45.99
2022-12-14T23:29:04.975Z,44.92
2022-12-14T23:34:25.815Z,44.70
2022-12-14T23:39:49.143Z,44.51
2022-12-14T23:45:11.805Z,44.28
2022-12-14T23:50:32.769Z,44.74
2022-12-14T23:55:53.970Z,43.22
